Time;durP1;ratioP1;P1;durP2;ratioP2;P2;SDS_P1;SDS_P2;PMS_P1;PMS_P2;Temp;Humidity;BMP_temperature;BMP_pressure;BME280_temperature;BME280_humidity;BME280_pressure;Samples;Min_cycle;Max_cycle;Signal;HPM_P1;HPM_P2
2022/03/27 00:03:10;;;;;;;11.18;3.50;;;;;;;;;;8384628;28;20047;-81
2022/03/27 00:07:14;;;;;;;6.32;3.10;;;;;;;;;;8379195;28;20041;-80
2022/03/27 00:11:26;;;;;;;11.05;3.45;;;;;;;;;;8383495;28;20385;-82
2022/03/27 00:15:28;;;;;;;7.07;3.17;;;;;;;;;;8386366;28;20075;-80
2022/03/27 00:19:31;;;;;;;12.27;3.38;;;;;;;;;;8379487;28;20044;-84
2022/03/27 00:23:36;;;;;;;12.20;3.67;;;;;;;;;;8383415;28;20041;-81
2022/03/27 00:27:38;;;;;;;12.02;3.75;;;;;;;;;;8379746;28;20049;-80
2022/03/27 00:31:41;;;;;;;8.25;4.18;;;;;;;;;;8378897;28;20480;-84
2022/03/27 00:35:44;;;;;;;9.23;3.40;;;;;;;;;;8380984;28;20086;-83
2022/03/27 00:39:48;;;;;;;10.60;3.33;;;;;;;;;;8385178;28;20044;-81
2022/03/27 00:43:50;;;;;;;9.02;3.13;;;;;;;;;;8364958;28;20055;-81
2022/03/27 00:47:54;;;;;;;10.05;3.65;;;;;;;;;;8365224;28;20045;-84
2022/03/27 00:51:57;;;;;;;7.97;3.38;;;;;;;;;;8364419;28;20045;-81
2022/03/27 00:56:01;;;;;;;9.88;3.30;;;;;;;;;;8366995;28;20095;-81
2022/03/27 01:00:08;;;;;;;8.13;3.90;;;;;;;;;;8388224;28;20041;-82
2022/03/27 01:04:12;;;;;;;11.85;3.97;;;;;;;;;;8375821;28;20094;-83
2022/03/27 01:08:15;;;;;;;9.02;3.22;;;;;;;;;;8380185;28;20558;-81
2022/03/27 01:12:26;;;;;;;13.57;3.95;;;;;;;;;;8373428;28;20080;-83
2022/03/27 01:16:37;;;;;;;10.05;3.90;;;;;;;;;;8379610;28;20044;-80
2022/03/27 01:20:43;;;;;;;10.02;3.85;;;;;;;;;;8379791;28;20484;-81
2022/03/27 01:24:46;;;;;;;13.98;3.63;;;;;;;;;;8370153;28;20072;-82
2022/03/27 01:28:48;;;;;;;10.55;4.15;;;;;;;;;;8373710;28;20045;-85
2022/03/27 01:32:53;;;;;;;7.80;3.72;;;;;;;;;;8373685;28;20370;-79
2022/03/27 01:37:01;;;;;;;9.68;3.38;;;;;;;;;;8379049;28;20040;-83
2022/03/27 01:41:04;;;;;;;7.78;3.40;;;;;;;;;;8376414;28;20041;-79
2022/03/27 01:45:08;;;;;;;8.32;3.75;;;;;;;;;;8374206;28;20068;-81
2022/03/27 01:49:12;;;;;;;11.55;3.50;;;;;;;;;;8378279;28;20045;-81
2022/03/27 01:53:16;;;;;;;6.88;3.72;;;;;;;;;;8379636;28;20401;-82
2022/03/27 01:57:18;;;;;;;11.07;4.35;;;;;;;;;;8381252;28;20045;-82
2022/03/27 02:01:21;;;;;;;9.13;3.85;;;;;;;;;;8383853;28;20048;-81
2022/03/27 02:05:24;;;;;;;11.48;3.78;;;;;;;;;;8377643;28;20548;-82
2022/03/27 02:09:28;;;;;;;12.20;3.63;;;;;;;;;;8382171;28;20515;-82
2022/03/27 02:13:30;;;;;;;14.50;3.75;;;;;;;;;;8365702;28;20107;-84
2022/03/27 02:17:37;;;;;;;7.32;3.38;;;;;;;;;;8364088;28;20049;-82
2022/03/27 02:21:41;;;;;;;6.28;2.75;;;;;;;;;;8378327;28;20047;-86
2022/03/27 02:25:45;;;;;;;9.80;3.63;;;;;;;;;;8378221;28;20454;-81
2022/03/27 02:29:47;;;;;;;6.60;2.70;;;;;;;;;;8390789;28;20049;-86
2022/03/27 02:33:50;;;;;;;6.18;3.28;;;;;;;;;;8368161;28;20044;-83
2022/03/27 02:37:52;;;;;;;5.25;2.65;;;;;;;;;;8381359;28;20546;-83
2022/03/27 02:41:57;;;;;;;8.30;3.50;;;;;;;;;;8382528;28;20056;-82
2022/03/27 02:45:59;;;;;;;8.07;3.58;;;;;;;;;;8392285;28;20123;-82
2022/03/27 02:50:04;;;;;;;14.20;4.15;;;;;;;;;;8385036;28;20127;-80
2022/03/27 02:54:08;;;;;;;10.90;4.00;;;;;;;;;;8372974;28;20040;-81
2022/03/27 02:58:12;;;;;;;8.52;3.67;;;;;;;;;;8370979;28;20424;-80
2022/03/27 03:02:16;;;;;;;8.27;2.90;;;;;;;;;;8363277;28;20495;-83
2022/03/27 03:06:21;;;;;;;14.90;4.65;;;;;;;;;;8368851;28;20370;-81
2022/03/27 03:10:24;;;;;;;5.40;3.05;;;;;;;;;;8367482;28;20045;-81
2022/03/27 03:14:28;;;;;;;11.18;3.28;;;;;;;;;;8371783;28;20041;-79
2022/03/27 03:18:31;;;;;;;15.13;3.35;;;;;;;;;;8382307;28;20044;-82
2022/03/27 03:22:35;;;;;;;8.13;3.47;;;;;;;;;;8384390;28;20045;-81
2022/03/27 03:26:37;;;;;;;7.47;3.63;;;;;;;;;;8378853;28;20512;-81
2022/03/27 03:30:41;;;;;;;9.43;3.28;;;;;;;;;;8377894;28;20041;-80
2022/03/27 03:34:43;;;;;;;6.97;3.47;;;;;;;;;;8384770;28;20048;-80
2022/03/27 03:38:46;;;;;;;33.75;11.68;;;;;;;;;;8376666;28;20045;-80
2022/03/27 03:42:49;;;;;;;15.63;6.70;;;;;;;;;;8376024;28;20052;-82
2022/03/27 03:46:54;;;;;;;7.22;4.05;;;;;;;;;;8381387;28;20120;-83
2022/03/27 03:50:57;;;;;;;8.75;3.85;;;;;;;;;;8382987;28;20041;-81
2022/03/27 03:54:59;;;;;;;5.97;3.42;;;;;;;;;;8381453;28;20048;-81
2022/03/27 03:59:02;;;;;;;9.82;3.67;;;;;;;;;;8374001;28;20049;-80
2022/03/27 04:03:07;;;;;;;9.30;3.55;;;;;;;;;;8366138;28;20045;-82
2022/03/27 04:07:09;;;;;;;11.63;3.83;;;;;;;;;;8369993;28;20515;-80
2022/03/27 04:11:16;;;;;;;5.32;2.78;;;;;;;;;;8385050;28;20068;-81
2022/03/27 04:15:18;;;;;;;8.20;3.50;;;;;;;;;;8376797;28;20048;-80
2022/03/27 04:19:23;;;;;;;7.85;3.85;;;;;;;;;;8382148;28;20427;-81
2022/03/27 04:23:25;;;;;;;11.07;4.53;;;;;;;;;;8379274;28;20051;-81
2022/03/27 04:27:28;;;;;;;13.70;5.40;;;;;;;;;;8377023;28;20041;-80
2022/03/27 04:31:30;;;;;;;13.32;4.72;;;;;;;;;;8379491;28;20052;-84
2022/03/27 04:35:34;;;;;;;10.48;3.97;;;;;;;;;;8376960;28;20488;-84
2022/03/27 04:39:37;;;;;;;8.20;4.38;;;;;;;;;;8382915;28;20041;-82
2022/03/27 04:43:39;;;;;;;12.45;5.55;;;;;;;;;;8386823;28;20542;-83
2022/03/27 04:47:42;;;;;;;10.60;4.63;;;;;;;;;;8379632;28;20049;-81
2022/03/27 04:51:46;;;;;;;11.35;4.35;;;;;;;;;;8385093;28;20408;-83
2022/03/27 04:55:49;;;;;;;6.65;3.33;;;;;;;;;;8383630;28;20040;-81
2022/03/27 04:59:51;;;;;;;10.20;3.50;;;;;;;;;;8369265;28;20049;-83
2022/03/27 05:03:54;;;;;;;14.02;6.50;;;;;;;;;;8358840;28;20111;-83
2022/03/27 05:08:00;;;;;;;19.83;9.40;;;;;;;;;;8382073;28;20187;-82
2022/03/27 05:12:02;;;;;;;19.08;11.57;;;;;;;;;;8370583;28;20416;-83
2022/03/27 05:16:05;;;;;;;25.73;13.23;;;;;;;;;;8394493;28;20503;-83
2022/03/27 05:20:09;;;;;;;16.48;10.05;;;;;;;;;;8383224;28;20044;-82
2022/03/27 05:24:13;;;;;;;19.13;9.68;;;;;;;;;;8381649;28;20049;-82
2022/03/27 05:28:16;;;;;;;16.10;8.43;;;;;;;;;;8377565;28;20447;-82
2022/03/27 05:32:19;;;;;;;11.20;6.00;;;;;;;;;;8382190;28;20067;-81
2022/03/27 05:36:21;;;;;;;18.35;5.88;;;;;;;;;;8375289;28;20089;-82
2022/03/27 05:40:27;;;;;;;13.85;5.38;;;;;;;;;;8373941;28;20168;-84
2022/03/27 05:44:30;;;;;;;17.50;6.28;;;;;;;;;;8379241;28;20067;-83
2022/03/27 05:48:33;;;;;;;12.40;6.38;;;;;;;;;;8375684;28;20040;-83
2022/03/27 05:52:35;;;;;;;28.17;8.25;;;;;;;;;;8381808;28;20041;-83
2022/03/27 05:56:39;;;;;;;16.98;7.28;;;;;;;;;;8375875;28;20051;-83
2022/03/27 06:00:42;;;;;;;16.05;6.35;;;;;;;;;;8373514;28;20102;-83
2022/03/27 06:04:45;;;;;;;25.65;10.77;;;;;;;;;;8374723;28;20408;-82
2022/03/27 06:08:48;;;;;;;23.58;9.95;;;;;;;;;;8378283;28;20052;-82
2022/03/27 06:12:52;;;;;;;12.73;5.75;;;;;;;;;;8375923;28;20098;-84
2022/03/27 06:16:55;;;;;;;20.63;7.72;;;;;;;;;;8386603;28;20041;-82
2022/03/27 06:20:58;;;;;;;24.73;8.75;;;;;;;;;;8375816;28;20044;-83
2022/03/27 06:25:01;;;;;;;17.88;7.22;;;;;;;;;;8370533;28;20040;-82
2022/03/27 06:29:07;;;;;;;12.13;5.65;;;;;;;;;;8380331;28;20048;-82
2022/03/27 06:33:09;;;;;;;14.93;5.00;;;;;;;;;;8381509;28;20040;-83
2022/03/27 06:37:12;;;;;;;14.90;5.53;;;;;;;;;;8381500;28;20123;-83
2022/03/27 06:41:15;;;;;;;11.82;4.30;;;;;;;;;;8381009;28;20048;-82
2022/03/27 06:45:20;;;;;;;12.35;4.22;;;;;;;;;;8387274;28;20056;-81
2022/03/27 06:49:23;;;;;;;10.63;4.25;;;;;;;;;;8377576;28;20045;-81
2022/03/27 06:53:26;;;;;;;7.53;3.78;;;;;;;;;;8378807;28;20493;-81
2022/03/27 06:57:29;;;;;;;10.27;3.83;;;;;;;;;;8383067;28;20040;-81
2022/03/27 07:05:56;;;;;;;12.15;5.35;;;;;;;;;;8352044;28;20488;-89
2022/03/27 07:09:58;;;;;;;9.45;3.67;;;;;;;;;;8371822;28;20060;-81
2022/03/27 07:14:01;;;;;;;8.40;3.60;;;;;;;;;;8377147;28;20393;-82
2022/03/27 07:18:08;;;;;;;7.28;4.18;;;;;;;;;;8377264;28;20073;-81
2022/03/27 07:22:11;;;;;;;6.82;3.28;;;;;;;;;;8374502;28;20466;-82
2022/03/27 07:26:14;;;;;;;11.82;3.28;;;;;;;;;;8368437;28;20078;-81
2022/03/27 07:30:18;;;;;;;8.90;3.00;;;;;;;;;;8379463;28;20206;-82
2022/03/27 07:34:23;;;;;;;10.18;5.20;;;;;;;;;;8374329;28;20060;-81
2022/03/27 07:38:27;;;;;;;8.00;4.18;;;;;;;;;;8367057;28;20045;-81
2022/03/27 07:42:34;;;;;;;7.88;3.50;;;;;;;;;;8367398;28;20489;-82
2022/03/27 07:46:58;;;;;;;10.10;4.55;;;;;;;;;;8373024;28;20110;-86
2022/03/27 07:51:20;;;;;;;7.30;3.10;;;;;;;;;;8369841;28;20107;-83
2022/03/27 07:55:25;;;;;;;6.38;3.03;;;;;;;;;;8371810;28;20044;-82
2022/03/27 07:59:29;;;;;;;5.93;2.40;;;;;;;;;;8373854;28;20053;-82
2022/03/27 08:03:34;;;;;;;6.22;2.55;;;;;;;;;;8363976;28;20149;-83
2022/03/27 08:07:46;;;;;;;3.25;1.90;;;;;;;;;;8374441;28;20136;-92
2022/03/27 08:11:50;;;;;;;5.30;1.98;;;;;;;;;;8378642;28;20045;-88
2022/03/27 08:15:56;;;;;;;3.72;2.00;;;;;;;;;;8383409;28;20131;-81
2022/03/27 08:20:00;;;;;;;6.13;2.28;;;;;;;;;;8376665;28;20569;-81
2022/03/27 08:24:06;;;;;;;4.18;1.85;;;;;;;;;;8375411;28;20076;-81
2022/03/27 08:28:11;;;;;;;4.10;1.60;;;;;;;;;;8392340;28;20127;-81
2022/03/27 08:32:15;;;;;;;5.57;2.17;;;;;;;;;;8387535;28;20052;-84
2022/03/27 08:36:17;;;;;;;6.97;2.20;;;;;;;;;;8387668;28;20144;-87
2022/03/27 08:40:22;;;;;;;4.82;2.22;;;;;;;;;;8385514;28;20049;-83
2022/03/27 08:44:26;;;;;;;2.35;1.70;;;;;;;;;;8393243;28;20531;-85
2022/03/27 08:48:33;;;;;;;3.97;1.85;;;;;;;;;;8396317;28;20056;-84
2022/03/27 08:52:55;;;;;;;5.15;2.00;;;;;;;;;;8390892;28;20049;-85
2022/03/27 08:57:30;;;;;;;3.28;1.90;;;;;;;;;;8373110;28;20140;-84
2022/03/27 09:01:39;;;;;;;2.65;1.60;;;;;;;;;;8369521;28;20127;-82
2022/03/27 09:05:47;;;;;;;2.70;1.63;;;;;;;;;;8367571;28;20052;-82
2022/03/27 09:09:55;;;;;;;5.63;2.65;;;;;;;;;;8366899;28;20088;-82
2022/03/27 09:14:04;;;;;;;5.25;1.65;;;;;;;;;;8376366;28;20041;-84
2022/03/27 09:18:11;;;;;;;6.10;2.35;;;;;;;;;;8367947;28;20052;-85
2022/03/27 09:22:18;;;;;;;2.75;1.60;;;;;;;;;;8353461;28;20409;-82
2022/03/27 09:26:21;;;;;;;4.97;2.40;;;;;;;;;;8375526;28;20045;-85
2022/03/27 09:30:36;;;;;;;4.65;1.63;;;;;;;;;;8372423;28;20048;-82
2022/03/27 09:35:01;;;;;;;4.63;1.60;;;;;;;;;;8362970;28;20400;-82
2022/03/27 09:39:08;;;;;;;2.67;1.73;;;;;;;;;;8371344;28;20045;-84
2022/03/27 09:43:15;;;;;;;4.28;1.50;;;;;;;;;;8371409;28;20044;-81
2022/03/27 09:47:31;;;;;;;4.05;1.55;;;;;;;;;;8371195;28;20076;-80
2022/03/27 09:51:52;;;;;;;2.47;1.63;;;;;;;;;;8378197;28;20139;-80
2022/03/27 09:56:15;;;;;;;2.65;1.30;;;;;;;;;;8363214;28;20055;-83
2022/03/27 10:00:18;;;;;;;;;;;;;;;;;;8372349;28;20048;-80
2022/03/27 10:04:24;;;;;;;3.17;1.58;;;;;;;;;;8372156;28;19995;-80
2022/03/27 10:08:28;;;;;;;2.20;1.27;;;;;;;;;;8383273;28;20388;-80
2022/03/27 10:12:37;;;;;;;2.42;1.48;;;;;;;;;;8375571;28;20495;-80
2022/03/27 10:16:46;;;;;;;2.65;1.50;;;;;;;;;;8377418;28;20064;-80
2022/03/27 10:20:59;;;;;;;2.80;1.60;;;;;;;;;;8376845;28;20477;-81
2022/03/27 10:25:04;;;;;;;3.53;1.58;;;;;;;;;;8368292;28;20045;-83
2022/03/27 10:29:09;;;;;;;4.38;1.45;;;;;;;;;;8375682;28;20045;-81
2022/03/27 10:33:13;;;;;;;3.30;1.58;;;;;;;;;;8371227;28;20411;-81
2022/03/27 10:37:42;;;;;;;3.72;1.67;;;;;;;;;;8377900;28;20041;-82
2022/03/27 10:42:04;;;;;;;2.97;1.52;;;;;;;;;;8370376;28;20052;-82
2022/03/27 10:46:17;;;;;;;5.45;1.65;;;;;;;;;;8371479;28;20099;-81
2022/03/27 10:50:28;;;;;;;5.05;1.83;;;;;;;;;;8376104;28;20127;-83
2022/03/27 10:55:01;;;;;;;3.27;1.70;;;;;;;;;;8378160;28;20036;-82
2022/03/27 10:59:23;;;;;;;6.75;2.10;;;;;;;;;;8373310;28;20045;-82
2022/03/27 11:04:04;;;;;;;5.68;1.85;;;;;;;;;;8376121;28;20072;-83
2022/03/27 11:08:41;;;;;;;4.35;1.90;;;;;;;;;;8374173;28;20078;-82
2022/03/27 11:12:48;;;;;;;3.53;1.98;;;;;;;;;;8373381;28;20055;-79
2022/03/27 11:17:38;;;;;;;5.03;1.70;;;;;;;;;;8365582;28;20052;-80
2022/03/27 11:21:48;;;;;;;4.82;1.80;;;;;;;;;;8360939;28;20057;-81
2022/03/27 11:25:52;;;;;;;5.18;1.95;;;;;;;;;;8372156;28;20049;-80
2022/03/27 11:34:32;;;;;;;4.82;1.80;;;;;;;;;;8372481;27;3886428;-79
2022/03/27 11:39:07;;;;;;;3.88;1.88;;;;;;;;;;8533592;27;20038;-82
2022/03/27 11:43:30;;;;;;;5.50;2.00;;;;;;;;;;8506613;27;20422;-79
2022/03/27 11:47:38;;;;;;;6.35;2.10;;;;;;;;;;8518012;27;20050;-82
2022/03/27 11:51:43;;;;;;;4.53;1.80;;;;;;;;;;8525401;27;20509;-81
2022/03/27 11:55:49;;;;;;;5.10;2.03;;;;;;;;;;8503299;27;20070;-83
2022/03/27 11:59:57;;;;;;;3.25;1.58;;;;;;;;;;8502348;27;20039;-81
2022/03/27 12:04:07;;;;;;;2.80;1.42;;;;;;;;;;8501129;27;20052;-82
2022/03/27 12:08:17;;;;;;;2.85;1.60;;;;;;;;;;8505791;27;20049;-81
2022/03/27 12:12:24;;;;;;;3.80;1.70;;;;;;;;;;8502176;27;20058;-79
2022/03/27 12:16:33;;;;;;;5.03;2.00;;;;;;;;;;8517290;27;20043;-81
2022/03/27 12:20:47;;;;;;;3.90;1.77;;;;;;;;;;8502166;27;20051;-81
2022/03/27 12:24:54;;;;;;;3.65;1.67;;;;;;;;;;8510841;27;20394;-82
2022/03/27 12:33:39;;;;;;;11.05;1.85;;;;;;;;;;8499291;27;20097;-82
2022/03/27 12:37:46;;;;;;;2.72;1.50;;;;;;;;;;8519175;27;20104;-81
2022/03/27 12:41:51;;;;;;;3.42;1.60;;;;;;;;;;8515612;27;20466;-81
2022/03/27 12:45:55;;;;;;;4.03;1.90;;;;;;;;;;8470438;27;20402;-81
2022/03/27 12:49:58;;;;;;;5.47;1.70;;;;;;;;;;8487967;27;20043;-81
2022/03/27 12:54:03;;;;;;;6.40;1.95;;;;;;;;;;8462714;27;20079;-81
2022/03/27 12:58:07;;;;;;;4.68;2.08;;;;;;;;;;8480857;27;20122;-80
2022/03/27 13:02:25;;;;;;;5.45;1.67;;;;;;;;;;8477891;27;20486;-81
2022/03/27 13:06:35;;;;;;;3.70;2.00;;;;;;;;;;8469057;27;20053;-80
2022/03/27 13:10:39;;;;;;;3.05;1.60;;;;;;;;;;8476553;27;20043;-81
2022/03/27 13:14:47;;;;;;;3.60;1.98;;;;;;;;;;8474261;27;20048;-82
2022/03/27 13:19:03;;;;;;;4.15;1.90;;;;;;;;;;8474438;27;20047;-79
2022/03/27 13:23:08;;;;;;;3.97;2.03;;;;;;;;;;8488502;27;20477;-82
2022/03/27 13:27:15;;;;;;;3.72;1.75;;;;;;;;;;8489524;27;20035;-81
2022/03/27 13:31:22;;;;;;;4.55;1.52;;;;;;;;;;8489349;27;20384;-81
2022/03/27 13:35:30;;;;;;;3.35;1.60;;;;;;;;;;8483102;27;20043;-80
2022/03/27 13:39:39;;;;;;;3.38;1.75;;;;;;;;;;8490284;27;20402;-81
2022/03/27 13:43:43;;;;;;;5.40;1.90;;;;;;;;;;8483921;27;20093;-81
2022/03/27 13:47:48;;;;;;;2.45;1.40;;;;;;;;;;8479409;27;20035;-81
2022/03/27 13:51:52;;;;;;;3.17;1.80;;;;;;;;;;8488729;27;20039;-81
2022/03/27 13:55:55;;;;;;;6.85;2.10;;;;;;;;;;8462848;27;20051;-81
2022/03/27 13:59:58;;;;;;;5.78;1.60;;;;;;;;;;8477674;27;20047;-81
2022/03/27 14:04:04;;;;;;;5.75;2.20;;;;;;;;;;8485332;27;20047;-81
2022/03/27 14:08:07;;;;;;;6.47;2.00;;;;;;;;;;8480249;27;20040;-82
2022/03/27 14:12:11;;;;;;;6.38;2.20;;;;;;;;;;8491164;27;20066;-79
2022/03/27 14:16:18;;;;;;;6.00;2.42;;;;;;;;;;8481567;27;20039;-82
2022/03/27 14:20:22;;;;;;;9.88;4.10;;;;;;;;;;8485129;27;20054;-80
2022/03/27 14:24:25;;;;;;;8.25;2.20;;;;;;;;;;8494479;27;20047;-80
2022/03/27 14:28:29;;;;;;;7.50;4.95;;;;;;;;;;8478981;27;20039;-79
2022/03/27 14:32:32;;;;;;;9.40;4.57;;;;;;;;;;8488767;27;20062;-79
2022/03/27 14:36:36;;;;;;;7.10;2.50;;;;;;;;;;8482093;27;20074;-79
2022/03/27 14:40:39;;;;;;;11.15;7.25;;;;;;;;;;8498330;27;20049;-81
2022/03/27 14:44:42;;;;;;;9.38;3.10;;;;;;;;;;8485938;27;20039;-80
2022/03/27 14:48:45;;;;;;;72.13;37.20;;;;;;;;;;8491314;27;20047;-80
2022/03/27 14:52:51;;;;;;;11.38;5.75;;;;;;;;;;8479372;27;20095;-79
2022/03/27 14:56:58;;;;;;;4.75;2.20;;;;;;;;;;8488297;27;22026;-80
2022/03/27 15:01:05;;;;;;;16.63;5.78;;;;;;;;;;8487523;27;20039;-80
2022/03/27 15:05:09;;;;;;;17.95;9.38;;;;;;;;;;8489374;27;20035;-81
2022/03/27 15:09:16;;;;;;;30.92;12.65;;;;;;;;;;8484262;27;20474;-80
2022/03/27 15:13:22;;;;;;;29.85;12.07;;;;;;;;;;8492544;27;20039;-79
2022/03/27 15:17:25;;;;;;;22.13;7.70;;;;;;;;;;8491510;27;20083;-79
2022/03/27 15:21:28;;;;;;;31.52;10.57;;;;;;;;;;8485579;27;20465;-80
2022/03/27 15:25:33;;;;;;;69.93;26.25;;;;;;;;;;8478455;27;20490;-80
2022/03/27 15:29:36;;;;;;;26.90;10.77;;;;;;;;;;8489079;27;20128;-80
2022/03/27 15:33:41;;;;;;;11.63;4.97;;;;;;;;;;8484091;27;20055;-80
2022/03/27 15:37:47;;;;;;;33.58;14.55;;;;;;;;;;8490616;28;20088;-81
2022/03/27 15:41:52;;;;;;;8.38;4.32;;;;;;;;;;8490551;27;20063;-80
2022/03/27 15:45:55;;;;;;;46.42;20.55;;;;;;;;;;8489860;27;20035;-80
2022/03/27 15:49:59;;;;;;;60.17;24.92;;;;;;;;;;8487184;27;20055;-80
2022/03/27 15:54:05;;;;;;;23.67;9.25;;;;;;;;;;8476602;27;20051;-78
2022/03/27 15:58:09;;;;;;;17.80;7.25;;;;;;;;;;8482428;27;20044;-80
2022/03/27 16:02:13;;;;;;;93.70;33.60;;;;;;;;;;8463488;28;20047;-80
2022/03/27 16:06:17;;;;;;;91.70;32.33;;;;;;;;;;8477033;27;20118;-80
2022/03/27 16:10:25;;;;;;;87.43;32.88;;;;;;;;;;8491240;27;20043;-79
2022/03/27 16:14:31;;;;;;;71.88;24.27;;;;;;;;;;8497601;27;20489;-80
2022/03/27 16:18:44;;;;;;;26.42;9.38;;;;;;;;;;8493479;27;20035;-78
2022/03/27 16:22:50;;;;;;;18.17;6.40;;;;;;;;;;8495280;27;20062;-80
2022/03/27 16:27:00;;;;;;;15.38;6.07;;;;;;;;;;8493415;27;20058;-79
2022/03/27 16:31:08;;;;;;;21.35;6.85;;;;;;;;;;8469214;27;20119;-79
2022/03/27 16:35:21;;;;;;;12.40;5.07;;;;;;;;;;8478413;27;21292;-79
2022/03/27 16:39:29;;;;;;;9.10;3.88;;;;;;;;;;8496268;27;20045;-80
2022/03/27 16:43:38;;;;;;;10.48;4.13;;;;;;;;;;8496373;27;20055;-79
2022/03/27 16:47:43;;;;;;;11.18;4.75;;;;;;;;;;8496438;27;20055;-79
2022/03/27 16:51:46;;;;;;;10.98;4.53;;;;;;;;;;8492423;27;20055;-79
2022/03/27 16:55:50;;;;;;;12.05;4.13;;;;;;;;;;8494699;27;20051;-79
2022/03/27 16:59:55;;;;;;;8.40;3.50;;;;;;;;;;8495354;27;20049;-79
2022/03/27 17:04:07;;;;;;;10.18;4.25;;;;;;;;;;8489662;27;20043;-80
2022/03/27 17:08:27;;;;;;;8.35;3.00;;;;;;;;;;8473124;27;20099;-79
2022/03/27 17:12:31;;;;;;;17.67;6.85;;;;;;;;;;8478907;27;20543;-79
2022/03/27 17:16:35;;;;;;;5.75;2.40;;;;;;;;;;8482257;27;20051;-79
2022/03/27 17:20:40;;;;;;;6.57;2.45;;;;;;;;;;8487630;27;20047;-77
2022/03/27 17:24:45;;;;;;;11.15;5.50;;;;;;;;;;8495322;27;20043;-80
2022/03/27 17:28:52;;;;;;;12.15;5.25;;;;;;;;;;8491210;27;20048;-77
2022/03/27 17:32:56;;;;;;;28.88;11.13;;;;;;;;;;8483979;27;20063;-79
2022/03/27 17:37:05;;;;;;;18.48;7.30;;;;;;;;;;8485574;27;20475;-79
2022/03/27 17:41:09;;;;;;;28.67;12.02;;;;;;;;;;8494356;27;20055;-78
2022/03/27 17:45:13;;;;;;;52.70;17.75;;;;;;;;;;8487880;27;20492;-80
2022/03/27 17:49:17;;;;;;;16.70;6.13;;;;;;;;;;8475603;27;20050;-80
2022/03/27 17:53:24;;;;;;;12.65;4.40;;;;;;;;;;8492697;27;20051;-80
2022/03/27 17:57:29;;;;;;;10.88;5.32;;;;;;;;;;8489961;27;20035;-79
2022/03/27 18:01:35;;;;;;;13.20;5.70;;;;;;;;;;8486552;27;20482;-80
2022/03/27 18:05:42;;;;;;;62.05;19.38;;;;;;;;;;8480341;27;20471;-79
2022/03/27 18:09:48;;;;;;;17.48;8.35;;;;;;;;;;8487663;27;20105;-79
2022/03/27 18:13:52;;;;;;;57.08;16.20;;;;;;;;;;8480650;27;20126;-79
2022/03/27 18:17:57;;;;;;;16.25;6.05;;;;;;;;;;8487737;27;20458;-85
2022/03/27 18:22:06;;;;;;;8.63;3.92;;;;;;;;;;8481077;27;20100;-79
2022/03/27 18:26:18;;;;;;;6.78;3.30;;;;;;;;;;8467991;27;20043;-79
2022/03/27 18:30:30;;;;;;;11.45;4.30;;;;;;;;;;8478340;27;20047;-80
2022/03/27 18:35:03;;;;;;;8.82;4.28;;;;;;;;;;8418436;28;20048;-79
2022/03/27 18:39:13;;;;;;;62.25;25.52;;;;;;;;;;8408928;28;20498;-78
2022/03/27 18:43:21;;;;;;;26.08;12.02;;;;;;;;;;8416231;28;20048;-79
2022/03/27 18:47:39;;;;;;;17.25;8.30;;;;;;;;;;8406223;28;20048;-78
2022/03/27 18:51:45;;;;;;;14.30;5.47;;;;;;;;;;8413891;28;20135;-79
2022/03/27 18:55:49;;;;;;;46.22;14.05;;;;;;;;;;8415160;28;20426;-79
2022/03/27 18:59:59;;;;;;;49.85;17.45;;;;;;;;;;8412194;28;20040;-80
2022/03/27 19:04:03;;;;;;;15.05;7.15;;;;;;;;;;8421379;28;20051;-78
2022/03/27 19:08:48;;;;;;;10.60;4.60;;;;;;;;;;8412689;28;20048;-79
2022/03/27 19:13:01;;;;;;;11.30;4.57;;;;;;;;;;8407803;28;20050;-79
2022/03/27 19:17:48;;;;;;;10.15;3.75;;;;;;;;;;8406791;28;20040;-79
2022/03/27 19:21:58;;;;;;;7.15;3.72;;;;;;;;;;8410183;28;20126;-80
2022/03/27 19:26:07;;;;;;;37.80;15.05;;;;;;;;;;8415747;28;20043;-79
2022/03/27 19:30:36;;;;;;;50.25;20.15;;;;;;;;;;8412362;28;20047;-80
2022/03/27 19:34:52;;;;;;;42.50;14.90;;;;;;;;;;8411378;28;20049;-79
2022/03/27 19:38:59;;;;;;;25.77;10.38;;;;;;;;;;8419858;28;20050;-78
2022/03/27 19:43:10;;;;;;;21.90;10.10;;;;;;;;;;8414734;28;20128;-80
2022/03/27 19:47:25;;;;;;;23.33;8.80;;;;;;;;;;8416063;28;20446;-80
2022/03/27 19:51:41;;;;;;;24.15;9.73;;;;;;;;;;8406721;28;20123;-79
2022/03/27 19:55:51;;;;;;;14.13;6.60;;;;;;;;;;8418277;28;20097;-78
2022/03/27 19:59:55;;;;;;;15.90;6.68;;;;;;;;;;8417560;28;20058;-80
2022/03/27 20:03:58;;;;;;;16.52;6.38;;;;;;;;;;8424463;28;20051;-83
2022/03/27 20:08:04;;;;;;;12.55;6.18;;;;;;;;;;8436746;28;20044;-80
2022/03/27 20:12:10;;;;;;;16.98;7.88;;;;;;;;;;8436512;28;20127;-79
2022/03/27 20:16:13;;;;;;;15.10;6.97;;;;;;;;;;8436578;28;20044;-80
2022/03/27 20:20:17;;;;;;;19.23;9.55;;;;;;;;;;8436057;28;20048;-78
2022/03/27 20:24:22;;;;;;;24.88;9.93;;;;;;;;;;8436284;28;20051;-79
2022/03/27 20:28:25;;;;;;;21.00;7.97;;;;;;;;;;8435867;28;20052;-78
2022/03/27 20:32:29;;;;;;;17.83;7.07;;;;;;;;;;8454049;27;20075;-81
2022/03/27 20:36:34;;;;;;;13.88;6.40;;;;;;;;;;8469888;27;20092;-80
2022/03/27 20:40:39;;;;;;;12.35;6.20;;;;;;;;;;8469635;27;20047;-79
2022/03/27 20:44:43;;;;;;;15.82;6.70;;;;;;;;;;8469504;27;20464;-79
2022/03/27 20:48:46;;;;;;;21.10;8.20;;;;;;;;;;8469620;27;20054;-81
2022/03/27 20:52:49;;;;;;;23.13;10.57;;;;;;;;;;8496409;27;20044;-80
2022/03/27 20:56:54;;;;;;;25.80;9.77;;;;;;;;;;8469199;27;20561;-79
2022/03/27 21:00:58;;;;;;;22.05;8.40;;;;;;;;;;8469281;27;20398;-79
2022/03/27 21:05:02;;;;;;;15.10;7.70;;;;;;;;;;8468844;27;20071;-80
2022/03/27 21:09:05;;;;;;;23.88;10.35;;;;;;;;;;8481035;27;20046;-81
2022/03/27 21:13:09;;;;;;;28.98;11.00;;;;;;;;;;8470623;27;20108;-82
2022/03/27 21:17:12;;;;;;;22.63;9.30;;;;;;;;;;8499228;27;20577;-79
2022/03/27 21:21:15;;;;;;;21.52;9.18;;;;;;;;;;8485341;27;20522;-83
2022/03/27 21:25:17;;;;;;;31.90;14.20;;;;;;;;;;8471603;27;20074;-78
2022/03/27 21:29:22;;;;;;;26.08;12.43;;;;;;;;;;8501420;27;20047;-80
2022/03/27 21:33:25;;;;;;;28.55;9.90;;;;;;;;;;8501246;27;20047;-80
2022/03/27 21:37:27;;;;;;;23.45;9.88;;;;;;;;;;8501548;27;20050;-80
2022/03/27 21:41:31;;;;;;;24.88;10.18;;;;;;;;;;8501414;27;20463;-79
2022/03/27 21:45:35;;;;;;;24.85;10.23;;;;;;;;;;8501765;27;20379;-80
2022/03/27 21:49:38;;;;;;;23.98;9.75;;;;;;;;;;8468063;27;20051;-82
2022/03/27 21:53:41;;;;;;;34.22;13.50;;;;;;;;;;8501122;27;20466;-83
2022/03/27 21:57:43;;;;;;;32.33;12.00;;;;;;;;;;8500966;27;20047;-80
2022/03/27 22:01:47;;;;;;;24.80;10.50;;;;;;;;;;8500623;27;20047;-79
2022/03/27 22:05:50;;;;;;;21.55;8.60;;;;;;;;;;8500013;27;20047;-80
2022/03/27 22:09:53;;;;;;;23.33;9.35;;;;;;;;;;8500670;27;20088;-83
2022/03/27 22:13:55;;;;;;;24.02;9.60;;;;;;;;;;8501195;27;20057;-82
2022/03/27 22:18:00;;;;;;;23.40;8.98;;;;;;;;;;8471104;27;20668;-84
2022/03/27 22:22:02;;;;;;;25.30;10.20;;;;;;;;;;8468201;27;20050;-82
2022/03/27 22:26:05;;;;;;;22.17;8.93;;;;;;;;;;8470020;27;20419;-81
2022/03/27 22:30:09;;;;;;;25.05;9.02;;;;;;;;;;8489137;27;20040;-84
2022/03/27 22:34:13;;;;;;;25.65;10.60;;;;;;;;;;8483197;27;20134;-81
2022/03/27 22:38:15;;;;;;;25.13;9.43;;;;;;;;;;8480970;27;20039;-84
2022/03/27 22:42:18;;;;;;;24.77;9.43;;;;;;;;;;8495843;27;20054;-81
2022/03/27 22:46:20;;;;;;;21.58;7.70;;;;;;;;;;8485160;27;20043;-80
2022/03/27 22:50:25;;;;;;;20.35;8.85;;;;;;;;;;8483437;27;20130;-78
2022/03/27 22:54:28;;;;;;;22.92;8.77;;;;;;;;;;8485208;27;20450;-81
2022/03/27 22:58:30;;;;;;;32.80;11.75;;;;;;;;;;8487286;27;20043;-83
2022/03/27 23:02:33;;;;;;;19.45;9.60;;;;;;;;;;8484145;27;20039;-82
2022/03/27 23:06:37;;;;;;;18.67;8.13;;;;;;;;;;8490458;27;20066;-88
2022/03/27 23:10:40;;;;;;;16.60;7.88;;;;;;;;;;8490573;27;20051;-82
2022/03/27 23:14:42;;;;;;;24.27;7.93;;;;;;;;;;8485464;27;20039;-81
2022/03/27 23:18:45;;;;;;;19.70;8.50;;;;;;;;;;8489194;27;20048;-82
2022/03/27 23:22:48;;;;;;;;;;;;;;;;;;8491407;27;20058;-80
2022/03/27 23:26:51;;;;;;;34.95;13.05;;;;;;;;;;8481338;27;20279;-81
2022/03/27 23:30:57;;;;;;;20.67;9.15;;;;;;;;;;8484954;27;20077;-83
2022/03/27 23:35:01;;;;;;;13.88;6.22;;;;;;;;;;8491362;28;20051;-81
2022/03/27 23:39:05;;;;;;;18.00;7.18;;;;;;;;;;8483029;28;20039;-81
2022/03/27 23:43:08;;;;;;;26.67;10.13;;;;;;;;;;8464482;28;20142;-81
2022/03/27 23:47:10;;;;;;;25.27;8.45;;;;;;;;;;8464676;28;20051;-80
2022/03/27 23:51:13;;;;;;;17.23;8.45;;;;;;;;;;8490933;28;20095;-80
2022/03/27 23:55:17;;;;;;;19.55;7.90;;;;;;;;;;8491004;28;20039;-80
2022/03/27 23:59:20;;;;;;;19.45;6.68;;;;;;;;;;8464182;28;20044;-81
